createdAt,value
2016-06-03T00:00:28.185Z,1004.84
2016-06-03T00:01:28.234Z,1004.82
2016-06-03T00:02:28.284Z,1004.81
2016-06-03T00:03:28.334Z,1004.78
2016-06-03T00:04:28.367Z,1004.74
2016-06-03T00:05:28.416Z,1004.77
2016-06-03T00:06:28.466Z,1004.72
2016-06-03T00:07:28.515Z,1004.76
2016-06-03T00:08:28.550Z,1004.71
2016-06-03T00:09:28.614Z,1004.73
2016-06-03T00:10:28.648Z,1004.7
2016-06-03T00:11:28.697Z,1004.7
2016-06-03T00:12:28.748Z,1004.66
2016-06-03T00:13:28.797Z,1004.67
2016-06-03T00:14:28.847Z,1004.69
2016-06-03T00:15:28.881Z,1004.68
2016-06-03T00:16:28.930Z,1004.68
2016-06-03T00:17:28.980Z,1004.67
2016-06-03T00:18:29.030Z,1004.69
2016-06-03T00:19:29.080Z,1004.74
2016-06-03T00:20:29.130Z,1004.75
2016-06-03T00:21:29.162Z,1004.76
2016-06-03T00:22:29.213Z,1004.74
2016-06-03T00:23:29.262Z,1004.74
2016-06-03T00:24:29.311Z,1004.7
2016-06-03T00:25:29.360Z,1004.72
2016-06-03T00:26:29.410Z,1004.74
2016-06-03T00:27:29.460Z,1004.72
2016-06-03T00:28:29.493Z,1004.74
2016-06-03T00:29:29.544Z,1004.74
2016-06-03T00:30:29.593Z,1004.7
2016-06-03T00:31:29.642Z,1004.71
2016-06-03T00:32:29.677Z,1004.7
2016-06-03T00:33:29.742Z,1004.67
2016-06-03T00:34:29.792Z,1004.67
2016-06-03T00:35:29.825Z,1004.68
2016-06-03T00:36:29.875Z,1004.66
2016-06-03T00:37:29.925Z,1004.67
2016-06-03T00:38:30.020Z,1004.67
2016-06-03T00:39:30.023Z,1004.68
2016-06-03T00:40:30.058Z,1004.71
2016-06-03T00:41:30.123Z,1004.68
2016-06-03T00:42:30.157Z,1004.68
2016-06-03T00:43:30.206Z,1004.65
2016-06-03T00:44:30.255Z,1004.69
2016-06-03T00:45:30.305Z,1004.68
2016-06-03T00:46:30.339Z,1004.64
2016-06-03T00:47:30.404Z,1004.7
2016-06-03T00:48:30.455Z,1004.67
2016-06-03T00:49:30.488Z,1004.66
2016-06-03T00:50:30.538Z,1004.71
2016-06-03T00:51:30.587Z,1004.68
2016-06-03T00:52:30.636Z,1004.64
2016-06-03T00:53:30.671Z,1004.66
2016-06-03T00:54:30.720Z,1004.65
2016-06-03T00:55:30.769Z,1004.65
2016-06-03T00:56:30.819Z,1004.63
2016-06-03T00:57:30.869Z,1004.63
2016-06-03T00:58:30.919Z,1004.63
2016-06-03T00:59:30.968Z,1004.65
2016-06-03T01:00:31.001Z,1004.67
2016-06-03T01:01:31.067Z,1004.66
2016-06-03T01:02:31.101Z,1004.62
2016-06-03T01:03:31.151Z,1004.61
2016-06-03T01:04:31.200Z,1004.64
2016-06-03T01:05:31.234Z,1004.64
2016-06-03T01:06:31.299Z,1004.62
2016-06-03T01:07:31.349Z,1004.63
2016-06-03T01:08:31.384Z,1004.63
2016-06-03T01:09:31.448Z,1004.63
2016-06-03T01:10:31.482Z,1004.61
2016-06-03T01:11:31.531Z,1004.64
2016-06-03T01:12:31.565Z,1004.64
2016-06-03T01:13:31.630Z,1004.65
2016-06-03T01:14:31.664Z,1004.66
2016-06-03T01:15:31.714Z,1004.63
2016-06-03T01:16:31.764Z,1004.65
2016-06-03T01:17:31.813Z,1004.66
2016-06-03T01:18:31.863Z,1004.63
2016-06-03T01:19:31.897Z,1004.65
2016-06-03T01:20:31.946Z,1004.64
2016-06-03T01:21:32.011Z,1004.63
2016-06-03T01:22:32.046Z,1004.66
2016-06-03T01:23:32.095Z,1004.65
2016-06-03T01:24:32.144Z,1004.66
2016-06-03T01:25:32.382Z,1004.72
2016-06-03T01:26:32.244Z,1004.71
2016-06-03T01:27:32.293Z,1004.67
2016-06-03T01:28:32.343Z,1004.71
2016-06-03T01:29:32.376Z,1004.68
2016-06-03T01:30:32.426Z,1004.69
2016-06-03T01:31:32.476Z,1004.66
2016-06-03T01:32:32.526Z,1004.71
2016-06-03T01:33:32.559Z,1004.65
2016-06-03T01:34:32.609Z,1004.68
2016-06-03T01:35:32.659Z,1004.64
2016-06-03T01:36:32.708Z,1004.64
2016-06-03T01:37:32.757Z,1004.65
2016-06-03T01:38:32.854Z,1004.65
2016-06-03T01:39:32.856Z,1004.65
2016-06-03T01:40:32.891Z,1004.64
2016-06-03T01:41:32.956Z,1004.61
2016-06-03T01:42:32.989Z,1004.6
2016-06-03T01:43:33.039Z,1004.61
2016-06-03T01:44:33.089Z,1004.58
2016-06-03T01:45:33.123Z,1004.57
2016-06-03T01:46:33.188Z,1004.57
2016-06-03T01:47:33.238Z,1004.59
2016-06-03T01:48:33.272Z,1004.6
2016-06-03T01:49:33.321Z,1004.64
2016-06-03T01:50:33.371Z,1004.58
2016-06-03T01:51:33.420Z,1004.59
2016-06-03T01:52:33.455Z,1004.59
2016-06-03T01:53:33.520Z,1004.59
2016-06-03T01:54:33.552Z,1004.61
2016-06-03T01:55:33.602Z,1004.62
2016-06-03T01:56:33.652Z,1004.57
2016-06-03T01:57:33.702Z,1004.61
2016-06-03T01:58:33.751Z,1004.66
2016-06-03T01:59:33.801Z,1004.6
2016-06-03T02:00:33.835Z,1004.62
2016-06-03T02:01:33.901Z,1004.58
2016-06-03T02:02:33.934Z,1004.66
2016-06-03T02:03:33.985Z,1004.62
2016-06-03T02:04:34.034Z,1004.62
2016-06-03T02:05:34.082Z,1004.63
2016-06-03T02:06:34.132Z,1004.63
2016-06-03T02:07:34.182Z,1004.59
2016-06-03T02:08:37.247Z,1004.63
2016-06-03T02:09:34.266Z,1004.61
2016-06-03T02:10:35.221Z,1004.62
2016-06-03T02:11:34.365Z,1004.6
2016-06-03T02:12:34.414Z,1004.61
2016-06-03T02:13:34.464Z,1004.6
2016-06-03T02:14:34.498Z,1004.6
2016-06-03T02:15:34.548Z,1004.61
2016-06-03T02:16:34.597Z,1004.61
2016-06-03T02:17:34.647Z,1004.62
2016-06-03T02:18:34.696Z,1004.61
2016-06-03T02:19:34.745Z,1004.56
2016-06-03T02:20:34.795Z,1004.61
2016-06-03T02:21:34.829Z,1004.58
2016-06-03T02:22:34.878Z,1004.57
2016-06-03T02:23:34.928Z,1004.54
2016-06-03T02:24:34.977Z,1004.53
2016-06-03T02:25:35.027Z,1004.56
2016-06-03T02:26:35.077Z,1004.56
2016-06-03T02:27:35.110Z,1004.56
2016-06-03T02:28:35.160Z,1004.58
2016-06-03T02:29:35.210Z,1004.57
2016-06-03T02:30:35.260Z,1004.61
2016-06-03T02:31:35.310Z,1004.62
2016-06-03T02:32:35.359Z,1004.62
2016-06-03T02:33:35.408Z,1004.64
2016-06-03T02:34:35.443Z,1004.65
2016-06-03T02:35:35.493Z,1004.63
2016-06-03T02:36:35.541Z,1004.63
2016-06-03T02:37:35.591Z,1004.63
2016-06-03T02:38:35.687Z,1004.63
2016-06-03T02:39:36.221Z,1004.58
2016-06-03T02:40:35.802Z,1004.63
2016-06-03T02:41:35.773Z,1004.64
2016-06-03T02:42:35.823Z,1004.62
2016-06-03T02:43:35.889Z,1004.69
2016-06-03T02:44:35.922Z,1004.7
2016-06-03T02:45:35.972Z,1004.69
2016-06-03T02:46:36.022Z,1004.66
2016-06-03T02:47:36.087Z,1004.68
2016-06-03T02:48:36.105Z,1004.67
2016-06-03T02:49:36.154Z,1004.68
2016-06-03T02:50:36.203Z,1004.66
2016-06-03T02:51:36.253Z,1004.68
2016-06-03T02:52:36.303Z,1004.65
2016-06-03T02:53:36.352Z,1004.68
2016-06-03T02:54:36.402Z,1004.66
2016-06-03T02:55:36.483Z,1004.66
2016-06-03T02:56:36.486Z,1004.72
2016-06-03T02:57:36.535Z,1004.7
2016-06-03T02:58:36.585Z,1004.71
2016-06-03T02:59:36.635Z,1004.71
2016-06-03T03:00:36.685Z,1004.7
2016-06-03T03:01:36.733Z,1004.69
2016-06-03T03:02:36.768Z,1004.71
2016-06-03T03:03:36.817Z,1004.67
2016-06-03T03:04:36.866Z,1004.67
2016-06-03T03:05:36.916Z,1004.67
2016-06-03T03:06:36.965Z,1004.68
2016-06-03T03:07:37.016Z,1004.67
2016-06-03T03:08:37.065Z,1004.71
2016-06-03T03:09:37.098Z,1004.7
2016-06-03T03:10:37.148Z,1004.7
2016-06-03T03:11:37.198Z,1004.73
2016-06-03T03:12:37.248Z,1004.7
2016-06-03T03:13:37.298Z,1004.71
2016-06-03T03:14:37.347Z,1004.71
2016-06-03T03:15:37.396Z,1004.67
2016-06-03T03:16:37.445Z,1004.71
2016-06-03T03:17:37.480Z,1004.72
2016-06-03T03:18:37.529Z,1004.73
2016-06-03T03:19:37.578Z,1004.69
2016-06-03T03:20:37.628Z,1004.69
2016-06-03T03:21:37.677Z,1004.73
2016-06-03T03:22:37.728Z,1004.73
2016-06-03T03:23:37.778Z,1004.76
2016-06-03T03:24:37.827Z,1004.74
2016-06-03T03:25:37.861Z,1004.73
2016-06-03T03:26:37.911Z,1004.78
2016-06-03T03:27:37.960Z,1004.76
2016-06-03T03:28:38.009Z,1004.8
2016-06-03T03:29:38.058Z,1004.74
2016-06-03T03:30:38.108Z,1004.77
2016-06-03T03:31:38.157Z,1004.77
2016-06-03T03:32:38.208Z,1004.79
2016-06-03T03:33:38.241Z,1004.78
2016-06-03T03:34:38.291Z,1004.82
2016-06-03T03:35:38.340Z,1004.81
2016-06-03T03:36:38.391Z,1004.83
2016-06-03T03:37:38.439Z,1004.85
2016-06-03T03:38:38.536Z,1004.8
2016-06-03T03:39:38.726Z,1004.82
2016-06-03T03:40:38.573Z,1004.85
2016-06-03T03:41:38.623Z,1004.85
2016-06-03T03:42:38.672Z,1004.87
2016-06-03T03:43:38.721Z,1004.89
2016-06-03T03:44:38.770Z,1004.91
2016-06-03T03:45:38.821Z,1004.92
2016-06-03T03:46:38.870Z,1004.91
2016-06-03T03:47:38.920Z,1004.93
2016-06-03T03:48:38.969Z,1004.98
2016-06-03T03:49:39.003Z,1004.94
2016-06-03T03:50:39.069Z,1004.97
2016-06-03T03:51:39.103Z,1004.92
2016-06-03T03:52:39.153Z,1004.91
2016-06-03T03:53:39.202Z,1004.9
2016-06-03T03:54:40.033Z,1004.94
2016-06-03T03:55:39.300Z,1004.93
2016-06-03T03:56:39.335Z,1004.93
2016-06-03T03:57:39.383Z,1004.94
2016-06-03T03:58:39.434Z,1004.93
2016-06-03T03:59:39.483Z,1004.97
2016-06-03T04:00:39.533Z,1005
2016-06-03T04:01:39.583Z,1005
2016-06-03T04:02:39.633Z,1005
2016-06-03T04:03:39.682Z,1005
2016-06-03T04:04:39.715Z,1004.96
2016-06-03T04:05:39.780Z,1005.02
2016-06-03T04:06:39.815Z,1005
2016-06-03T04:07:39.864Z,1004.99
2016-06-03T04:08:39.914Z,1004.98
2016-06-03T04:09:39.963Z,1005
2016-06-03T04:10:40.012Z,1004.99
2016-06-03T04:11:40.062Z,1005.03
2016-06-03T04:12:40.112Z,1005.01
2016-06-03T04:13:40.146Z,1005.03
2016-06-03T04:14:40.196Z,1005
2016-06-03T04:15:40.245Z,1004.99
2016-06-03T04:16:40.294Z,1005.05
2016-06-03T04:17:40.344Z,1005.02
2016-06-03T04:18:40.394Z,1004.99
2016-06-03T04:19:40.428Z,1004.99
2016-06-03T04:20:40.478Z,1004.97
2016-06-03T04:21:40.527Z,1005
2016-06-03T04:22:40.576Z,1005
2016-06-03T04:23:40.626Z,1005
2016-06-03T04:24:40.676Z,1005.02
2016-06-03T04:25:40.725Z,1005.02
2016-06-03T04:26:40.775Z,1005.04
2016-06-03T04:27:40.824Z,1005.03
2016-06-03T04:28:40.858Z,1005.02
2016-06-03T04:29:40.908Z,1005.02
2016-06-03T04:30:40.958Z,1005.01
2016-06-03T04:31:41.007Z,1004.98
2016-06-03T04:32:41.057Z,1005.01
2016-06-03T04:33:41.106Z,1005.06
2016-06-03T04:34:41.156Z,1005.07
2016-06-03T04:35:41.205Z,1005.04
2016-06-03T04:36:41.239Z,1005.08
2016-06-03T04:37:41.288Z,1005.08
2016-06-03T04:38:41.385Z,1005.06
2016-06-03T04:39:41.950Z,1005.1
2016-06-03T04:40:41.438Z,1005.09
2016-06-03T04:41:41.487Z,1005.11
2016-06-03T04:42:41.537Z,1005.1
2016-06-03T04:43:41.586Z,1005.13
2016-06-03T04:44:41.620Z,1005.16
2016-06-03T04:45:41.670Z,1005.19
2016-06-03T04:46:41.719Z,1005.17
2016-06-03T04:47:41.769Z,1005.2
2016-06-03T04:48:41.818Z,1005.18
2016-06-03T04:49:41.867Z,1005.22
2016-06-03T04:50:41.917Z,1005.2
2016-06-03T04:51:41.951Z,1005.18
2016-06-03T04:52:42.017Z,1005.22
2016-06-03T04:53:42.050Z,1005.15
2016-06-03T04:54:42.975Z,1005.18
2016-06-03T04:55:42.150Z,1005.21
2016-06-03T04:56:42.200Z,1005.15
2016-06-03T04:57:42.249Z,1005.16
2016-06-03T04:58:42.298Z,1005.17
2016-06-03T04:59:42.348Z,1005.2
2016-06-03T05:00:42.382Z,1005.19
2016-06-03T05:01:42.430Z,1005.2
2016-06-03T05:02:42.481Z,1005.22
2016-06-03T05:03:42.530Z,1005.22
2016-06-03T05:04:42.580Z,1005.26
2016-06-03T05:05:42.629Z,1005.26
2016-06-03T05:06:42.679Z,1005.3
2016-06-03T05:07:42.713Z,1005.27
2016-06-03T05:08:42.779Z,1005.29
2016-06-03T05:09:42.812Z,1005.33
2016-06-03T05:10:42.862Z,1005.34
2016-06-03T05:11:42.912Z,1005.34
2016-06-03T05:12:42.961Z,1005.34
2016-06-03T05:13:43.010Z,1005.35
2016-06-03T05:14:43.060Z,1005.36
2016-06-03T05:15:43.110Z,1005.36
2016-06-03T05:16:43.143Z,1005.37
2016-06-03T05:17:43.192Z,1005.36
2016-06-03T05:18:43.242Z,1005.32
2016-06-03T05:19:43.292Z,1005.37
2016-06-03T05:20:43.342Z,1005.33
2016-06-03T05:21:43.391Z,1005.35
2016-06-03T05:22:43.441Z,1005.34
2016-06-03T05:23:43.490Z,1005.38
2016-06-03T05:24:43.837Z,1005.41
2016-06-03T05:25:43.589Z,1005.4
2016-06-03T05:26:43.639Z,1005.43
2016-06-03T05:27:43.673Z,1005.43
2016-06-03T05:28:43.723Z,1005.45
2016-06-03T05:29:43.772Z,1005.45
2016-06-03T05:30:43.806Z,1005.47
2016-06-03T05:31:43.856Z,1005.44
2016-06-03T05:32:43.906Z,1005.47
2016-06-03T05:33:43.954Z,1005.46
2016-06-03T05:34:44.004Z,1005.47
2016-06-03T05:35:44.054Z,1005.43
2016-06-03T05:36:44.104Z,1005.5
2016-06-03T05:37:44.152Z,1005.56
2016-06-03T05:38:44.249Z,1005.53
2016-06-03T05:39:44.690Z,1005.51
2016-06-03T05:40:44.536Z,1005.54
2016-06-03T05:41:44.335Z,1005.53
2016-06-03T05:42:44.385Z,1005.53
2016-06-03T05:43:44.435Z,1005.56
2016-06-03T05:44:44.485Z,1005.54
2016-06-03T05:45:44.518Z,1005.57
2016-06-03T05:46:44.584Z,1005.59
2016-06-03T05:47:44.618Z,1005.62
2016-06-03T05:48:44.683Z,1005.63
2016-06-03T05:49:44.717Z,1005.62
2016-06-03T05:50:44.767Z,1005.63
2016-06-03T05:51:44.816Z,1005.66
2016-06-03T05:52:44.865Z,1005.7
2016-06-03T05:53:44.899Z,1005.72
2016-06-03T05:54:45.652Z,1005.71
2016-06-03T05:55:44.998Z,1005.73
2016-06-03T05:56:45.047Z,1005.81
2016-06-03T05:57:45.097Z,1005.81
2016-06-03T05:58:45.147Z,1005.83
2016-06-03T05:59:45.197Z,1005.82
2016-06-03T06:00:45.246Z,1005.84
2016-06-03T06:01:45.296Z,1005.86
2016-06-03T06:02:45.330Z,1005.83
2016-06-03T06:03:45.380Z,1005.84
2016-06-03T06:04:45.429Z,1005.82
2016-06-03T06:05:45.478Z,1005.82
2016-06-03T06:06:45.528Z,1005.84
2016-06-03T06:07:45.578Z,1005.81
2016-06-03T06:08:45.627Z,1005.83
2016-06-03T06:09:45.677Z,1005.84
2016-06-03T06:10:45.726Z,1005.87
2016-06-03T06:11:45.761Z,1005.84
2016-06-03T06:12:45.809Z,1005.87
2016-06-03T06:13:45.859Z,1005.86
2016-06-03T06:14:45.909Z,1005.9
2016-06-03T06:15:45.959Z,1005.88
2016-06-03T06:16:46.007Z,1005.89
2016-06-03T06:17:46.057Z,1005.85
2016-06-03T06:18:46.107Z,1005.84
2016-06-03T06:19:46.141Z,1005.86
2016-06-03T06:20:46.190Z,1005.88
2016-06-03T06:21:46.240Z,1005.85
2016-06-03T06:22:46.290Z,1005.9
2016-06-03T06:23:46.340Z,1005.84
2016-06-03T06:24:46.936Z,1005.84
2016-06-03T06:25:46.439Z,1005.84
2016-06-03T06:26:46.489Z,1005.81
2016-06-03T06:27:46.554Z,1005.84
2016-06-03T06:28:46.586Z,1005.84
2016-06-03T06:29:46.636Z,1005.83
2016-06-03T06:30:46.670Z,1005.83
2016-06-03T06:31:46.720Z,1005.85
2016-06-03T06:32:46.769Z,1005.86
2016-06-03T06:33:46.819Z,1005.9
2016-06-03T06:34:46.869Z,1005.87
2016-06-03T06:35:46.919Z,1005.85
2016-06-03T06:36:46.968Z,1005.83
2016-06-03T06:37:47.018Z,1005.82
2016-06-03T06:38:47.114Z,1005.83
2016-06-03T06:39:47.851Z,1005.82
2016-06-03T06:40:47.558Z,1005.84
2016-06-03T06:41:47.216Z,1005.82
2016-06-03T06:42:47.249Z,1005.81
2016-06-03T06:43:47.299Z,1005.79
2016-06-03T06:44:47.349Z,1005.79
2016-06-03T06:45:47.398Z,1005.77
2016-06-03T06:46:47.448Z,1005.79
2016-06-03T06:47:47.522Z,1005.78
2016-06-03T06:48:47.599Z,1005.81
2016-06-03T06:49:47.675Z,1005.78
2016-06-03T06:50:47.737Z,1005.83
2016-06-03T06:51:47.814Z,1005.83
2016-06-03T06:52:47.891Z,1005.8
2016-06-03T06:53:47.934Z,1005.86
2016-06-03T06:54:47.993Z,1005.86
2016-06-03T06:55:48.054Z,1005.86
2016-06-03T06:56:48.114Z,1005.86
2016-06-03T06:57:48.167Z,1005.93
2016-06-03T06:58:48.220Z,1005.89
2016-06-03T06:59:48.273Z,1005.91
2016-06-03T07:00:48.326Z,1005.95
2016-06-03T07:01:48.379Z,1005.99
2016-06-03T07:02:48.430Z,1005.99
2016-06-03T07:03:48.481Z,1006.03
2016-06-03T07:04:48.531Z,1006.06
2016-06-03T07:05:48.566Z,1006.08
2016-06-03T07:06:48.617Z,1006.04
2016-06-03T07:07:48.667Z,1006.04
2016-06-03T07:08:48.718Z,1006.03
2016-06-03T07:09:48.769Z,1006.02
2016-06-03T07:10:48.819Z,1005.99
2016-06-03T07:11:48.869Z,1005.95
2016-06-03T07:12:48.918Z,1006
2016-06-03T07:13:48.968Z,1005.97
2016-06-03T07:14:49.018Z,1005.98
2016-06-03T07:15:49.067Z,1005.95
2016-06-03T07:16:49.117Z,1005.96
2016-06-03T07:17:49.166Z,1005.98
2016-06-03T07:18:49.200Z,1005.98
2016-06-03T07:19:49.265Z,1005.99
2016-06-03T07:20:49.299Z,1006
2016-06-03T07:21:49.349Z,1005.99
2016-06-03T07:22:49.398Z,1005.95
2016-06-03T07:23:49.448Z,1005.95
2016-06-03T07:24:49.638Z,1005.92
2016-06-03T07:25:49.548Z,1005.93
2016-06-03T07:26:49.597Z,1005.92
2016-06-03T07:27:49.647Z,1005.92
2016-06-03T07:28:49.696Z,1005.93
2016-06-03T07:29:49.746Z,1005.89
2016-06-03T07:30:49.795Z,1005.93
2016-06-03T07:31:49.845Z,1005.95
2016-06-03T07:32:49.879Z,1005.96
2016-06-03T07:33:49.944Z,1005.93
2016-06-03T07:34:49.993Z,1005.95
2016-06-03T07:35:50.027Z,1005.98
2016-06-03T07:36:50.077Z,1005.98
2016-06-03T07:37:50.127Z,1005.96
2016-06-03T07:38:50.223Z,1006
2016-06-03T07:39:50.694Z,1006
2016-06-03T07:40:50.494Z,1006
2016-06-03T07:41:50.325Z,1006.02
2016-06-03T07:42:50.374Z,1006
2016-06-03T07:43:50.423Z,1005.99
2016-06-03T07:44:50.473Z,1005.96
2016-06-03T07:45:50.523Z,1005.98
2016-06-03T07:46:50.573Z,1005.96
2016-06-03T07:47:50.622Z,1005.95
2016-06-03T07:48:50.672Z,1005.96
2016-06-03T07:49:50.721Z,1005.96
2016-06-03T07:50:50.755Z,1005.98
2016-06-03T07:51:50.820Z,1005.98
2016-06-03T07:52:50.854Z,1005.95
2016-06-03T07:53:50.919Z,1005.97
2016-06-03T07:54:51.406Z,1005.96
2016-06-03T07:55:51.003Z,1005.91
2016-06-03T07:56:51.053Z,1005.89
2016-06-03T07:57:51.102Z,1005.95
2016-06-03T07:58:51.152Z,1005.93
2016-06-03T07:59:51.201Z,1005.93
2016-06-03T08:00:51.250Z,1005.95
2016-06-03T08:01:51.300Z,1005.94
2016-06-03T08:02:51.349Z,1005.92
2016-06-03T08:03:51.400Z,1005.95
2016-06-03T08:04:51.449Z,1005.96
2016-06-03T08:05:51.499Z,1005.91
2016-06-03T08:06:51.548Z,1005.93
2016-06-03T08:07:51.598Z,1005.95
2016-06-03T08:08:51.663Z,1005.99
2016-06-03T08:09:51.931Z,1005.98
2016-06-03T08:10:51.746Z,1006.01
2016-06-03T08:11:51.796Z,1006.02
2016-06-03T08:12:51.846Z,1006.06
2016-06-03T08:13:51.895Z,1006.06
2016-06-03T08:14:51.945Z,1006.09
2016-06-03T08:15:51.995Z,1006.09
2016-06-03T08:16:52.043Z,1006.11
2016-06-03T08:17:52.093Z,1006.11
2016-06-03T08:18:52.143Z,1006.13
2016-06-03T08:19:52.192Z,1006.13
2016-06-03T08:20:52.242Z,1006.15
2016-06-03T08:21:52.292Z,1006.16
2016-06-03T08:22:52.341Z,1006.16
2016-06-03T08:23:52.391Z,1006.16
2016-06-03T08:24:52.440Z,1006.19
2016-06-03T08:25:52.490Z,1006.18
2016-06-03T08:26:52.539Z,1006.15
2016-06-03T08:27:52.589Z,1006.17
2016-06-03T08:28:52.639Z,1006.17
2016-06-03T08:29:52.688Z,1006.17
2016-06-03T08:30:52.738Z,1006.18
2016-06-03T08:31:52.788Z,1006.18
2016-06-03T08:32:52.836Z,1006.2
2016-06-03T08:33:52.886Z,1006.21
2016-06-03T08:34:52.935Z,1006.22
2016-06-03T08:35:52.986Z,1006.23
2016-06-03T08:36:53.035Z,1006.22
2016-06-03T08:37:53.085Z,1006.25
2016-06-03T08:38:53.182Z,1006.22
2016-06-03T08:39:53.184Z,1006.23
2016-06-03T08:40:53.233Z,1006.18
2016-06-03T08:41:53.282Z,1006.15
2016-06-03T08:42:53.332Z,1006.16
2016-06-03T08:43:53.382Z,1006.11
2016-06-03T08:44:53.431Z,1006.11
2016-06-03T08:45:53.482Z,1006.11
2016-06-03T08:46:53.531Z,1006.07
2016-06-03T08:47:53.580Z,1006.1
2016-06-03T08:48:53.630Z,1006.11
2016-06-03T08:49:53.679Z,1006.13
2016-06-03T08:50:53.729Z,1006.12
2016-06-03T08:51:53.779Z,1006.15
2016-06-03T08:52:53.828Z,1006.19
2016-06-03T08:53:53.877Z,1006.15
2016-06-03T08:54:53.959Z,1006.14
2016-06-03T08:55:53.992Z,1006.14
2016-06-03T08:56:54.026Z,1006.12
2016-06-03T08:57:54.076Z,1006.17
2016-06-03T08:58:54.125Z,1006.2
2016-06-03T08:59:54.175Z,1006.18
2016-06-03T09:00:54.225Z,1006.15
2016-06-03T09:01:54.274Z,1006.19
2016-06-03T09:02:54.324Z,1006.15
2016-06-03T09:03:54.389Z,1006.13
2016-06-03T09:04:54.423Z,1006.17
2016-06-03T09:05:54.489Z,1006.17
2016-06-03T09:06:54.538Z,1006.17
2016-06-03T09:07:54.587Z,1006.2
2016-06-03T09:08:54.637Z,1006.15
2016-06-03T09:09:54.686Z,1006.15
2016-06-03T09:10:54.736Z,1006.16
2016-06-03T09:11:54.785Z,1006.15
2016-06-03T09:12:54.835Z,1006.12
2016-06-03T09:13:54.901Z,1006.09
2016-06-03T09:14:54.935Z,1006.1
2016-06-03T09:15:55.031Z,1006.13
2016-06-03T09:16:55.034Z,1006.11
2016-06-03T09:17:55.083Z,1006.1
2016-06-03T09:18:55.133Z,1006.11
2016-06-03T09:19:55.198Z,1006.15
2016-06-03T09:20:55.248Z,1006.15
2016-06-03T09:21:55.297Z,1006.13
2016-06-03T09:22:55.346Z,1006.12
2016-06-03T09:23:55.412Z,1006.12
2016-06-03T09:24:56.071Z,1006.16
2016-06-03T09:25:55.495Z,1006.15
2016-06-03T09:26:55.560Z,1006.21
2016-06-03T09:27:55.610Z,1006.16
2016-06-03T09:28:55.659Z,1006.17
2016-06-03T09:29:55.708Z,1006.19
2016-06-03T09:30:55.759Z,1006.1
2016-06-03T09:31:55.808Z,1006.15
2016-06-03T09:32:55.857Z,1006.14
2016-06-03T09:33:55.907Z,1006.15
2016-06-03T09:34:55.973Z,1006.12
2016-06-03T09:35:56.006Z,1006.16
2016-06-03T09:36:56.072Z,1006.15
2016-06-03T09:37:56.121Z,1006.17
2016-06-03T09:38:56.218Z,1006.15
2016-06-03T09:39:56.221Z,1006.12
2016-06-03T09:40:56.269Z,1006.11
2016-06-03T09:41:56.319Z,1006.13
2016-06-03T09:42:56.385Z,1006.12
2016-06-03T09:43:56.435Z,1006.07
2016-06-03T09:44:56.485Z,1006.06
2016-06-03T09:45:56.533Z,1006.06
2016-06-03T09:46:56.582Z,1006.08
2016-06-03T09:47:56.633Z,1006.1
2016-06-03T09:48:56.697Z,1006.13
2016-06-03T09:49:56.748Z,1006.15
2016-06-03T09:50:56.796Z,1006.12
2016-06-03T09:51:56.846Z,1006.09
2016-06-03T09:52:56.896Z,1006.09
2016-06-03T09:53:56.945Z,1006.11
2016-06-03T09:54:57.011Z,1006.05
2016-06-03T09:55:57.060Z,1006.11
2016-06-03T09:56:57.109Z,1006.1
2016-06-03T09:57:57.159Z,1006.07
2016-06-03T09:58:57.208Z,1006.04
2016-06-03T09:59:57.258Z,1006
2016-06-03T10:00:57.309Z,1006.02
2016-06-03T10:01:57.373Z,1006.04
2016-06-03T10:02:57.423Z,1006.07
2016-06-03T10:03:57.472Z,1006.12
2016-06-03T10:04:57.522Z,1006.15
2016-06-03T10:05:57.571Z,1006.16
2016-06-03T10:06:57.622Z,1006.17
2016-06-03T10:07:57.671Z,1006.23
2016-06-03T10:08:57.735Z,1006.22
2016-06-03T10:09:57.786Z,1006.2
2016-06-03T10:10:57.835Z,1006.17
2016-06-03T10:11:57.885Z,1006.15
2016-06-03T10:12:57.935Z,1006.15
2016-06-03T10:13:57.999Z,1006.17
2016-06-03T10:14:58.049Z,1006.17
2016-06-03T10:15:58.098Z,1006.15
2016-06-03T10:16:58.148Z,1006.18
2016-06-03T10:17:58.213Z,1006.15
2016-06-03T10:18:58.263Z,1006.15
2016-06-03T10:19:58.312Z,1006.12
2016-06-03T10:20:58.393Z,1006.13
2016-06-03T10:21:58.427Z,1006.08
2016-06-03T10:22:58.476Z,1006.14
2016-06-03T10:23:58.526Z,1006.09
2016-06-03T10:24:59.153Z,1006.05
2016-06-03T10:25:58.922Z,1006.05
2016-06-03T10:26:58.676Z,1006.04
2016-06-03T10:27:58.740Z,1006.07
2016-06-03T10:28:58.790Z,1006.12
2016-06-03T10:29:58.839Z,1006.1
2016-06-03T10:30:58.904Z,1006.11
2016-06-03T10:31:58.954Z,1006.17
2016-06-03T10:32:59.019Z,1006.14
2016-06-03T10:33:59.053Z,1006.14
2016-06-03T10:34:59.102Z,1006.14
2016-06-03T10:35:59.167Z,1006.16
2016-06-03T10:36:59.217Z,1006.13
2016-06-03T10:37:59.266Z,1006.14
2016-06-03T10:38:59.380Z,1006.13
2016-06-03T10:39:59.382Z,1006.1
2016-06-03T10:40:59.431Z,1006.09
2016-06-03T10:41:59.480Z,1006.12
2016-06-03T10:42:59.546Z,1006.07
2016-06-03T10:43:59.596Z,1006.07
2016-06-03T10:44:59.645Z,1006.07
2016-06-03T10:45:59.726Z,1006.07
2016-06-03T10:46:59.776Z,1006.07
2016-06-03T10:47:59.810Z,1006.09
2016-06-03T10:48:59.874Z,1006.12
2016-06-03T10:49:59.924Z,1006.1
2016-06-03T10:50:59.974Z,1006.1
2016-06-03T10:52:00.040Z,1006.08
2016-06-03T10:53:00.088Z,1006.09
2016-06-03T10:54:00.153Z,1006.09
2016-06-03T10:55:00.204Z,1006.1
2016-06-03T10:56:00.253Z,1006.02
2016-06-03T10:57:00.303Z,1006.01
2016-06-03T10:58:00.384Z,1005.98
2016-06-03T10:59:00.417Z,1005.97
2016-06-03T11:00:00.467Z,1005.99
2016-06-03T11:01:00.547Z,1005.97
2016-06-03T11:02:00.581Z,1005.97
2016-06-03T11:03:00.647Z,1005.97
2016-06-03T11:04:00.697Z,1005.96
2016-06-03T11:05:00.761Z,1005.93
2016-06-03T11:06:00.811Z,1005.96
2016-06-03T11:07:00.860Z,1005.86
2016-06-03T11:08:00.925Z,1005.89
2016-06-03T11:09:00.975Z,1005.87
2016-06-03T11:10:01.650Z,1005.85
2016-06-03T11:11:01.090Z,1005.88
2016-06-03T11:12:01.139Z,1005.87
2016-06-03T11:13:01.189Z,1005.87
2016-06-03T11:14:01.254Z,1005.82
2016-06-03T11:15:01.304Z,1005.85
2016-06-03T11:16:01.353Z,1005.84
2016-06-03T11:17:01.418Z,1005.91
2016-06-03T11:18:01.468Z,1005.85
2016-06-03T11:19:01.518Z,1005.86
2016-06-03T11:20:01.583Z,1005.88
2016-06-03T11:21:01.632Z,1005.88
2016-06-03T11:22:01.682Z,1005.86
2016-06-03T11:23:01.748Z,1005.84
2016-06-03T11:24:01.796Z,1005.83
2016-06-03T11:25:02.503Z,1005.87
2016-06-03T11:26:01.911Z,1005.86
2016-06-03T11:27:01.962Z,1005.89
2016-06-03T11:28:02.027Z,1005.88
2016-06-03T11:29:02.076Z,1005.83
2016-06-03T11:30:02.142Z,1005.88
2016-06-03T11:31:02.190Z,1005.89
2016-06-03T11:32:02.240Z,1005.85
2016-06-03T11:33:02.305Z,1005.85
2016-06-03T11:34:02.355Z,1005.85
2016-06-03T11:35:02.420Z,1005.85
2016-06-03T11:36:02.470Z,1005.85
2016-06-03T11:37:02.520Z,1005.88
2016-06-03T11:38:02.584Z,1005.92
2016-06-03T11:39:02.697Z,1005.87
2016-06-03T11:40:02.684Z,1005.81
2016-06-03T11:41:02.749Z,1005.82
2016-06-03T11:42:02.799Z,1005.8
2016-06-03T11:43:02.864Z,1005.82
2016-06-03T11:44:02.913Z,1005.8
2016-06-03T11:45:02.963Z,1005.8
2016-06-03T11:46:03.027Z,1005.81
2016-06-03T11:47:03.093Z,1005.79
2016-06-03T11:48:03.143Z,1005.76
2016-06-03T11:49:03.193Z,1005.72
2016-06-03T11:50:03.258Z,1005.7
2016-06-03T11:51:03.307Z,1005.7
2016-06-03T11:52:03.372Z,1005.68
2016-06-03T11:53:03.421Z,1005.7
2016-06-03T11:54:03.471Z,1005.71
2016-06-03T11:55:03.536Z,1005.65
2016-06-03T11:56:03.601Z,1005.64
2016-06-03T11:57:03.651Z,1005.66
2016-06-03T11:58:03.701Z,1005.64
2016-06-03T11:59:03.766Z,1005.6
2016-06-03T12:00:03.831Z,1005.66
2016-06-03T12:01:03.881Z,1005.59
2016-06-03T12:02:03.946Z,1005.6
2016-06-03T12:03:03.995Z,1005.51
2016-06-03T12:04:04.061Z,1005.52
2016-06-03T12:05:04.110Z,1005.48
2016-06-03T12:06:04.176Z,1005.5
2016-06-03T12:07:04.241Z,1005.47
2016-06-03T12:08:04.289Z,1005.47
2016-06-03T12:09:04.339Z,1005.5
2016-06-03T12:10:04.420Z,1005.44